In Rescue
 
Open Full Screen Window  High Contrast Mode
Wind Gusting 00 knots
12
November 29, 2022 8:37 AM CST
Present Weather: Light Snow
Weather Information
Wind Direction
  350 °
Wind Speed
  12 kt (14 mph)
Wind Gust
  00 kt (0 mph)
Altimeter
29.65 in
Visibility
2 SM
Temperature
-02° C
28° F
Dewpoint
-03° C
27° F
Humidity
93%
1hr Rain Fall
00.00 in.
24hr Rain Fall
00.00 in.
Sky Condition
Overcast @ 2,500 ft
Broken @ 1,100 ft
IFR

METAR KACQ 291437Z AUTO 35012KT 2SM -SN BKN011 OVC025 M02/M03 A2965 RMK AO2

FAA Disclaimer: The data displayed is for advisory purposes only and is not to be used for flight planning or operations.